sensor_id;sensor_type;location;lat;lon;timestamp;pressure;altitude;pressure_sealevel;temperature;humidity
15568;BME280;7885;42.596;23.044;2022-10-28T00:01:27;94128.59;;;11.65;71.54
15568;BME280;7885;42.596;23.044;2022-10-28T00:03:55;94162.38;;;11.84;71.36
15568;BME280;7885;42.596;23.044;2022-10-28T00:06:25;94149.16;;;11.86;69.61
15568;BME280;7885;42.596;23.044;2022-10-28T00:08:53;94147.81;;;11.73;69.38
15568;BME280;7885;42.596;23.044;2022-10-28T00:11:21;94130.44;;;11.54;69.28
15568;BME280;7885;42.596;23.044;2022-10-28T00:13:49;94169.47;;;11.62;68.81
15568;BME280;7885;42.596;23.044;2022-10-28T00:16:19;94161.22;;;11.58;70.95
15568;BME280;7885;42.596;23.044;2022-10-28T00:18:47;94135.22;;;11.35;71.72
15568;BME280;7885;42.596;23.044;2022-10-28T00:21:16;94158.09;;;11.56;70.30
15568;BME280;7885;42.596;23.044;2022-10-28T00:23:44;94147.41;;;11.41;71.93
15568;BME280;7885;42.596;23.044;2022-10-28T00:26:13;94124.72;;;11.33;72.77
15568;BME280;7885;42.596;23.044;2022-10-28T00:28:41;94154.22;;;11.57;72.33
15568;BME280;7885;42.596;23.044;2022-10-28T00:31:10;94155.78;;;11.58;70.02
15568;BME280;7885;42.596;23.044;2022-10-28T00:33:37;94148.34;;;11.55;71.68
15568;BME280;7885;42.596;23.044;2022-10-28T00:36:09;94118.56;;;11.40;71.44
15568;BME280;7885;42.596;23.044;2022-10-28T00:38:36;94131.69;;;11.31;71.44
15568;BME280;7885;42.596;23.044;2022-10-28T00:41:05;94124.56;;;11.23;70.81
15568;BME280;7885;42.596;23.044;2022-10-28T00:43:33;94150.47;;;11.39;71.05
15568;BME280;7885;42.596;23.044;2022-10-28T00:46:00;94148.44;;;11.33;71.56
15568;BME280;7885;42.596;23.044;2022-10-28T00:48:28;94120.59;;;11.17;72.07
15568;BME280;7885;42.596;23.044;2022-10-28T00:50:55;94144.88;;;11.29;70.89
15568;BME280;7885;42.596;23.044;2022-10-28T00:53:24;94133.78;;;11.14;71.62
15568;BME280;7885;42.596;23.044;2022-10-28T00:55:52;94145.47;;;11.15;73.57
15568;BME280;7885;42.596;23.044;2022-10-28T00:58:22;94121.94;;;11.03;73.94
15568;BME280;7885;42.596;23.044;2022-10-28T01:00:50;94134.63;;;11.19;73.69
15568;BME280;7885;42.596;23.044;2022-10-28T01:03:17;94128.34;;;11.14;70.44
15568;BME280;7885;42.596;23.044;2022-10-28T01:05:46;94144.00;;;11.21;70.70
15568;BME280;7885;42.596;23.044;2022-10-28T01:08:14;94152.16;;;11.21;71.70
15568;BME280;7885;42.596;23.044;2022-10-28T01:13:56;94144.84;;;10.99;72.38
15568;BME280;7885;42.596;23.044;2022-10-28T01:16:32;94143.50;;;10.86;72.52
15568;BME280;7885;42.596;23.044;2022-10-28T01:19:30;94138.41;;;10.84;73.30
15568;BME280;7885;42.596;23.044;2022-10-28T01:22:14;94128.47;;;10.73;72.27
15568;BME280;7885;42.596;23.044;2022-10-28T01:25:01;94144.81;;;10.73;74.63
15568;BME280;7885;42.596;23.044;2022-10-28T01:30:53;94144.81;;;10.73;76.14
15568;BME280;7885;42.596;23.044;2022-10-28T01:33:27;94122.09;;;10.61;73.40
15568;BME280;7885;42.596;23.044;2022-10-28T01:36:02;94140.22;;;10.77;73.56
15568;BME280;7885;42.596;23.044;2022-10-28T01:38:40;94144.53;;;10.78;72.73
15568;BME280;7885;42.596;23.044;2022-10-28T01:41:15;94137.75;;;10.68;71.99
15568;BME280;7885;42.596;23.044;2022-10-28T01:43:47;94148.47;;;10.57;75.00
15568;BME280;7885;42.596;23.044;2022-10-28T01:46:23;94138.94;;;10.44;77.11
15568;BME280;7885;42.596;23.044;2022-10-28T01:48:54;94123.09;;;10.27;78.66
15568;BME280;7885;42.596;23.044;2022-10-28T01:51:25;94136.38;;;10.32;79.09
15568;BME280;7885;42.596;23.044;2022-10-28T01:53:57;94142.56;;;10.29;78.19
15568;BME280;7885;42.596;23.044;2022-10-28T01:56:27;94142.44;;;10.22;75.32
15568;BME280;7885;42.596;23.044;2022-10-28T01:58:57;94145.44;;;10.17;76.14
15568;BME280;7885;42.596;23.044;2022-10-28T02:01:27;94126.53;;;10.05;76.70
15568;BME280;7885;42.596;23.044;2022-10-28T02:03:55;94152.38;;;10.14;75.34
15568;BME280;7885;42.596;23.044;2022-10-28T02:06:25;94148.09;;;10.13;74.81
15568;BME280;7885;42.596;23.044;2022-10-28T02:09:00;94150.75;;;10.10;75.08
15568;BME280;7885;42.596;23.044;2022-10-28T02:11:39;94142.78;;;10.01;74.25
15568;BME280;7885;42.596;23.044;2022-10-28T02:14:20;94141.53;;;9.95;75.87
15568;BME280;7885;42.596;23.044;2022-10-28T02:16:57;94136.44;;;9.94;77.58
15568;BME280;7885;42.596;23.044;2022-10-28T02:19:32;94122.69;;;9.87;76.54
15568;BME280;7885;42.596;23.044;2022-10-28T02:22:11;94143.22;;;10.03;76.69
15568;BME280;7885;42.596;23.044;2022-10-28T02:24:47;94152.03;;;9.97;75.13
15568;BME280;7885;42.596;23.044;2022-10-28T02:27:20;94151.22;;;9.96;74.77
15568;BME280;7885;42.596;23.044;2022-10-28T02:29:53;94137.75;;;9.81;77.88
15568;BME280;7885;42.596;23.044;2022-10-28T02:32:26;94125.22;;;9.76;78.49
15568;BME280;7885;42.596;23.044;2022-10-28T02:34:57;94151.97;;;9.93;78.20
15568;BME280;7885;42.596;23.044;2022-10-28T02:37:27;94135.88;;;9.85;79.24
15568;BME280;7885;42.596;23.044;2022-10-28T02:39:57;94146.50;;;9.93;79.05
15568;BME280;7885;42.596;23.044;2022-10-28T02:45:50;94121.44;;;9.81;76.92
15568;BME280;7885;42.596;23.044;2022-10-28T02:48:23;94149.16;;;9.90;75.64
15568;BME280;7885;42.596;23.044;2022-10-28T02:50:56;94148.47;;;9.93;78.38
15568;BME280;7885;42.596;23.044;2022-10-28T02:53:30;94157.47;;;9.97;78.04
15568;BME280;7885;42.596;23.044;2022-10-28T02:56:00;94144.09;;;9.88;76.46
15568;BME280;7885;42.596;23.044;2022-10-28T02:58:37;94143.09;;;9.77;74.79
15568;BME280;7885;42.596;23.044;2022-10-28T03:01:03;94154.78;;;9.78;74.13
15568;BME280;7885;42.596;23.044;2022-10-28T03:03:32;94156.22;;;9.72;75.46
15568;BME280;7885;42.596;23.044;2022-10-28T03:05:58;94145.06;;;9.57;77.16
15568;BME280;7885;42.596;23.044;2022-10-28T03:08:25;94157.13;;;9.60;78.42
15568;BME280;7885;42.596;23.044;2022-10-28T03:10:52;94148.19;;;9.59;79.01
15568;BME280;7885;42.596;23.044;2022-10-28T03:13:19;94149.06;;;9.63;79.51
15568;BME280;7885;42.596;23.044;2022-10-28T03:15:45;94146.34;;;9.63;75.01
15568;BME280;7885;42.596;23.044;2022-10-28T03:18:12;94159.56;;;9.46;74.96
15568;BME280;7885;42.596;23.044;2022-10-28T03:20:40;94153.19;;;9.38;77.70
15568;BME280;7885;42.596;23.044;2022-10-28T03:23:07;94131.16;;;9.24;76.95
15568;BME280;7885;42.596;23.044;2022-10-28T03:25:40;94150.75;;;9.33;75.39
15568;BME280;7885;42.596;23.044;2022-10-28T03:28:07;94158.03;;;9.29;76.46
15568;BME280;7885;42.596;23.044;2022-10-28T03:30:34;94153.59;;;9.21;80.13
15568;BME280;7885;42.596;23.044;2022-10-28T03:33:00;94154.16;;;9.11;81.72
15568;BME280;7885;42.596;23.044;2022-10-28T03:35:27;94154.84;;;9.24;82.36
15568;BME280;7885;42.596;23.044;2022-10-28T03:37:55;94149.19;;;9.32;81.57
15568;BME280;7885;42.596;23.044;2022-10-28T03:40:22;94159.34;;;9.35;79.08
15568;BME280;7885;42.596;23.044;2022-10-28T03:42:49;94153.81;;;9.32;76.90
15568;BME280;7885;42.596;23.044;2022-10-28T03:45:15;94156.03;;;9.26;75.68
15568;BME280;7885;42.596;23.044;2022-10-28T03:47:42;94159.75;;;9.18;77.72
15568;BME280;7885;42.596;23.044;2022-10-28T03:50:09;94165.81;;;9.11;75.99
15568;BME280;7885;42.596;23.044;2022-10-28T03:52:36;94167.56;;;9.04;76.55
15568;BME280;7885;42.596;23.044;2022-10-28T03:55:05;94150.63;;;8.91;76.83
15568;BME280;7885;42.596;23.044;2022-10-28T03:57:32;94137.06;;;8.76;76.00
15568;BME280;7885;42.596;23.044;2022-10-28T03:59:58;94161.47;;;8.76;76.22
15568;BME280;7885;42.596;23.044;2022-10-28T04:02:25;94146.97;;;8.68;77.25
15568;BME280;7885;42.596;23.044;2022-10-28T04:04:52;94168.31;;;8.70;78.14
15568;BME280;7885;42.596;23.044;2022-10-28T04:07:19;94175.69;;;8.69;80.07
15568;BME280;7885;42.596;23.044;2022-10-28T04:09:46;94123.81;;;8.39;78.54
15568;BME280;7885;42.596;23.044;2022-10-28T04:12:17;94168.84;;;8.59;77.90
15568;BME280;7885;42.596;23.044;2022-10-28T04:14:44;94177.19;;;8.67;80.55
15568;BME280;7885;42.596;23.044;2022-10-28T04:17:11;94166.22;;;8.63;81.90
15568;BME280;7885;42.596;23.044;2022-10-28T04:19:37;94165.44;;;8.62;83.25
15568;BME280;7885;42.596;23.044;2022-10-28T04:22:04;94137.97;;;8.48;82.63
15568;BME280;7885;42.596;23.044;2022-10-28T04:24:31;94168.78;;;8.72;82.30
15568;BME280;7885;42.596;23.044;2022-10-28T04:26:57;94168.88;;;8.75;80.46
15568;BME280;7885;42.596;23.044;2022-10-28T04:29:26;94087.16;;;8.30;79.54
15568;BME280;7885;42.596;23.044;2022-10-28T04:31:52;94172.78;;;8.78;79.48
15568;BME280;7885;42.596;23.044;2022-10-28T04:34:19;94167.63;;;8.73;76.02
15568;BME280;7885;42.596;23.044;2022-10-28T04:36:46;94175.88;;;8.60;78.43
15568;BME280;7885;42.596;23.044;2022-10-28T04:39:12;94159.66;;;8.48;81.62
15568;BME280;7885;42.596;23.044;2022-10-28T04:41:39;94164.66;;;8.46;83.74
15568;BME280;7885;42.596;23.044;2022-10-28T04:44:06;94114.13;;;8.10;84.10
15568;BME280;7885;42.596;23.044;2022-10-28T04:46:34;94091.75;;;7.82;81.33
15568;BME280;7885;42.596;23.044;2022-10-28T04:49:01;94168.59;;;8.33;82.29
15568;BME280;7885;42.596;23.044;2022-10-28T04:51:28;94134.78;;;8.15;83.34
15568;BME280;7885;42.596;23.044;2022-10-28T04:53:55;94165.44;;;8.31;81.01
15568;BME280;7885;42.596;23.044;2022-10-28T04:56:22;94170.72;;;8.40;78.63
15568;BME280;7885;42.596;23.044;2022-10-28T04:58:48;94171.03;;;8.38;81.66
15568;BME280;7885;42.596;23.044;2022-10-28T05:01:15;94169.50;;;8.37;85.08
15568;BME280;7885;42.596;23.044;2022-10-28T05:03:43;94137.69;;;8.22;86.00
15568;BME280;7885;42.596;23.044;2022-10-28T05:06:10;94180.69;;;8.51;79.80
15568;BME280;7885;42.596;23.044;2022-10-28T05:08:36;94173.94;;;8.45;78.81
15568;BME280;7885;42.596;23.044;2022-10-28T05:11:03;94180.53;;;8.44;80.02
15568;BME280;7885;42.596;23.044;2022-10-28T05:13:30;94175.09;;;8.44;77.53
15568;BME280;7885;42.596;23.044;2022-10-28T05:15:57;94174.03;;;8.33;79.57
15568;BME280;7885;42.596;23.044;2022-10-28T05:18:24;94177.66;;;8.25;79.03
15568;BME280;7885;42.596;23.044;2022-10-28T05:20:52;94169.81;;;8.20;78.23
15568;BME280;7885;42.596;23.044;2022-10-28T05:23:19;94173.38;;;8.24;79.78
15568;BME280;7885;42.596;23.044;2022-10-28T05:25:47;94164.56;;;8.27;80.40
15568;BME280;7885;42.596;23.044;2022-10-28T05:31:35;94188.72;;;8.63;78.63
15568;BME280;7885;42.596;23.044;2022-10-28T05:34:01;94161.06;;;8.74;80.13
15568;BME280;7885;42.596;23.044;2022-10-28T05:36:30;94151.47;;;9.30;78.10
15568;BME280;7885;42.596;23.044;2022-10-28T05:38:56;94196.56;;;10.50;74.96
15568;BME280;7885;42.596;23.044;2022-10-28T05:41:23;94189.84;;;11.15;72.35
15568;BME280;7885;42.596;23.044;2022-10-28T05:43:50;94195.97;;;11.09;72.50
15568;BME280;7885;42.596;23.044;2022-10-28T05:46:17;94200.59;;;11.05;72.51
15568;BME280;7885;42.596;23.044;2022-10-28T05:48:43;94201.78;;;11.07;71.60
15568;BME280;7885;42.596;23.044;2022-10-28T05:51:10;94211.13;;;11.06;71.68
15568;BME280;7885;42.596;23.044;2022-10-28T05:53:38;94199.78;;;11.04;71.51
15568;BME280;7885;42.596;23.044;2022-10-28T05:56:06;94185.72;;;10.99;71.52
15568;BME280;7885;42.596;23.044;2022-10-28T05:58:33;94205.47;;;11.19;71.22
15568;BME280;7885;42.596;23.044;2022-10-28T06:01:00;94181.28;;;11.13;70.83
15568;BME280;7885;42.596;23.044;2022-10-28T06:03:27;94174.41;;;11.23;70.45
15568;BME280;7885;42.596;23.044;2022-10-28T06:05:53;94209.56;;;11.88;69.89
15568;BME280;7885;42.596;23.044;2022-10-28T06:08:20;94208.75;;;13.42;65.76
15568;BME280;7885;42.596;23.044;2022-10-28T06:10:51;94153.63;;;15.96;56.38
15568;BME280;7885;42.596;23.044;2022-10-28T06:13:18;94205.94;;;19.00;47.50
15568;BME280;7885;42.596;23.044;2022-10-28T06:15:50;94213.78;;;21.20;41.05
15568;BME280;7885;42.596;23.044;2022-10-28T06:18:16;94211.94;;;23.09;36.10
15568;BME280;7885;42.596;23.044;2022-10-28T06:20:43;94219.63;;;24.84;32.28
15568;BME280;7885;42.596;23.044;2022-10-28T06:23:16;94201.16;;;26.09;28.95
15568;BME280;7885;42.596;23.044;2022-10-28T06:25:43;94202.31;;;27.45;27.22
15568;BME280;7885;42.596;23.044;2022-10-28T06:28:11;94199.97;;;28.56;25.60
15568;BME280;7885;42.596;23.044;2022-10-28T06:30:38;94220.94;;;29.73;23.92
15568;BME280;7885;42.596;23.044;2022-10-28T06:33:05;94226.53;;;30.77;22.72
15568;BME280;7885;42.596;23.044;2022-10-28T06:35:31;94224.94;;;31.42;21.79
15568;BME280;7885;42.596;23.044;2022-10-28T06:37:58;94211.25;;;32.18;21.42
15568;BME280;7885;42.596;23.044;2022-10-28T06:43:48;94220.28;;;33.96;19.33
15568;BME280;7885;42.596;23.044;2022-10-28T06:46:15;94222.53;;;34.42;18.97
15568;BME280;7885;42.596;23.044;2022-10-28T06:48:42;94223.34;;;35.06;18.14
15568;BME280;7885;42.596;23.044;2022-10-28T06:51:09;94219.69;;;35.63;17.84
15568;BME280;7885;42.596;23.044;2022-10-28T06:53:35;94225.66;;;36.48;16.78
15568;BME280;7885;42.596;23.044;2022-10-28T06:56:02;94204.66;;;37.24;16.25
15568;BME280;7885;42.596;23.044;2022-10-28T06:58:29;94237.31;;;38.51;15.00
15568;BME280;7885;42.596;23.044;2022-10-28T07:01:02;94234.91;;;39.47;14.29
15568;BME280;7885;42.596;23.044;2022-10-28T07:03:29;94236.59;;;39.97;13.56
15568;BME280;7885;42.596;23.044;2022-10-28T07:05:57;94226.75;;;40.60;12.96
15568;BME280;7885;42.596;23.044;2022-10-28T07:08:25;94241.06;;;40.67;13.29
15568;BME280;7885;42.596;23.044;2022-10-28T07:10:53;94252.84;;;41.20;12.90
15568;BME280;7885;42.596;23.044;2022-10-28T07:13:20;94241.28;;;41.77;12.38
15568;BME280;7885;42.596;23.044;2022-10-28T07:15:50;94226.50;;;41.43;12.58
15568;BME280;7885;42.596;23.044;2022-10-28T07:18:19;94237.78;;;41.56;12.49
15568;BME280;7885;42.596;23.044;2022-10-28T07:20:46;94237.16;;;41.93;12.17
15568;BME280;7885;42.596;23.044;2022-10-28T07:23:13;94244.69;;;42.34;11.94
15568;BME280;7885;42.596;23.044;2022-10-28T07:25:40;94192.97;;;42.70;11.64
15568;BME280;7885;42.596;23.044;2022-10-28T07:28:07;94233.00;;;42.09;12.13
15568;BME280;7885;42.596;23.044;2022-10-28T07:30:35;94148.09;;;41.97;11.72
15568;BME280;7885;42.596;23.044;2022-10-28T07:33:03;94231.91;;;42.88;11.62
15568;BME280;7885;42.596;23.044;2022-10-28T07:35:32;94241.84;;;43.02;11.46
15568;BME280;7885;42.596;23.044;2022-10-28T07:37:58;94197.09;;;43.07;11.23
15568;BME280;7885;42.596;23.044;2022-10-28T07:40:25;94242.41;;;43.63;10.96
15568;BME280;7885;42.596;23.044;2022-10-28T07:42:52;94238.63;;;43.61;11.19
15568;BME280;7885;42.596;23.044;2022-10-28T07:45:19;94218.91;;;43.97;11.02
15568;BME280;7885;42.596;23.044;2022-10-28T07:47:46;94230.69;;;44.16;10.75
15568;BME280;7885;42.596;23.044;2022-10-28T07:50:13;94231.41;;;43.92;11.02
15568;BME280;7885;42.596;23.044;2022-10-28T07:52:41;94241.50;;;43.93;10.46
15568;BME280;7885;42.596;23.044;2022-10-28T07:55:09;94223.75;;;44.27;10.65
15568;BME280;7885;42.596;23.044;2022-10-28T07:57:36;94191.59;;;43.96;10.35
15568;BME280;7885;42.596;23.044;2022-10-28T08:00:05;94228.13;;;44.53;10.61
15568;BME280;7885;42.596;23.044;2022-10-28T08:02:32;94219.16;;;44.49;10.57
15568;BME280;7885;42.596;23.044;2022-10-28T08:04:58;94218.78;;;44.45;10.57
15568;BME280;7885;42.596;23.044;2022-10-28T08:07:26;94221.50;;;44.18;10.40
15568;BME280;7885;42.596;23.044;2022-10-28T08:09:55;94227.88;;;44.83;10.25
15568;BME280;7885;42.596;23.044;2022-10-28T08:12:21;94224.75;;;44.89;10.63
15568;BME280;7885;42.596;23.044;2022-10-28T08:14:48;94184.59;;;44.81;10.37
15568;BME280;7885;42.596;23.044;2022-10-28T08:17:15;94224.03;;;45.57;10.14
15568;BME280;7885;42.596;23.044;2022-10-28T08:19:42;94226.44;;;45.34;9.87
15568;BME280;7885;42.596;23.044;2022-10-28T08:22:08;94219.75;;;44.72;10.20
15568;BME280;7885;42.596;23.044;2022-10-28T08:24:35;94228.09;;;45.02;10.19
15568;BME280;7885;42.596;23.044;2022-10-28T08:27:03;94212.16;;;44.84;10.26
15568;BME280;7885;42.596;23.044;2022-10-28T08:29:30;94216.19;;;45.06;9.71
15568;BME280;7885;42.596;23.044;2022-10-28T08:31:57;94223.56;;;44.92;10.32
15568;BME280;7885;42.596;23.044;2022-10-28T08:34:24;94159.28;;;45.04;10.16
15568;BME280;7885;42.596;23.044;2022-10-28T08:36:53;94217.63;;;45.49;10.04
15568;BME280;7885;42.596;23.044;2022-10-28T08:39:20;94216.00;;;45.21;9.91
15568;BME280;7885;42.596;23.044;2022-10-28T08:41:52;94216.38;;;44.83;10.30
15568;BME280;7885;42.596;23.044;2022-10-28T08:44:47;94213.38;;;45.50;9.85
15568;BME280;7885;42.596;23.044;2022-10-28T08:47:28;94209.16;;;45.51;10.31
15568;BME280;7885;42.596;23.044;2022-10-28T08:50:01;94217.78;;;45.51;10.30
15568;BME280;7885;42.596;23.044;2022-10-28T08:52:33;94219.72;;;45.48;10.00
15568;BME280;7885;42.596;23.044;2022-10-28T08:55:06;94211.38;;;45.43;10.32
15568;BME280;7885;42.596;23.044;2022-10-28T08:57:40;94211.88;;;45.49;10.44
15568;BME280;7885;42.596;23.044;2022-10-28T09:00:18;94216.13;;;46.18;10.15
15568;BME280;7885;42.596;23.044;2022-10-28T09:06:00;94203.41;;;45.95;10.20
15568;BME280;7885;42.596;23.044;2022-10-28T09:08:29;94206.03;;;45.56;10.36
15568;BME280;7885;42.596;23.044;2022-10-28T09:11:07;94205.25;;;45.21;10.02
15568;BME280;7885;42.596;23.044;2022-10-28T09:13:48;94188.84;;;45.14;10.27
15568;BME280;7885;42.596;23.044;2022-10-28T09:16:31;94204.34;;;45.19;10.22
15568;BME280;7885;42.596;23.044;2022-10-28T09:19:03;94192.03;;;45.70;9.77
15568;BME280;7885;42.596;23.044;2022-10-28T09:21:41;94182.22;;;46.00;9.57
15568;BME280;7885;42.596;23.044;2022-10-28T09:24:16;94187.22;;;45.72;9.37
15568;BME280;7885;42.596;23.044;2022-10-28T09:26:51;94187.13;;;45.63;9.28
15568;BME280;7885;42.596;23.044;2022-10-28T09:29:28;94186.88;;;45.86;9.51
15568;BME280;7885;42.596;23.044;2022-10-28T09:32:09;94181.03;;;45.59;9.22
15568;BME280;7885;42.596;23.044;2022-10-28T09:34:43;94174.34;;;46.00;9.20
15568;BME280;7885;42.596;23.044;2022-10-28T09:37:15;94166.59;;;45.93;9.51
15568;BME280;7885;42.596;23.044;2022-10-28T09:39:46;94168.34;;;44.76;9.48
15568;BME280;7885;42.596;23.044;2022-10-28T09:42:17;94151.38;;;44.70;9.72
15568;BME280;7885;42.596;23.044;2022-10-28T09:44:48;94137.81;;;44.46;9.84
15568;BME280;7885;42.596;23.044;2022-10-28T09:47:21;94128.63;;;42.71;10.72
15568;BME280;7885;42.596;23.044;2022-10-28T09:50:10;94145.69;;;41.42;11.90
15568;BME280;7885;42.596;23.044;2022-10-28T09:52:53;94140.25;;;40.52;12.98
15568;BME280;7885;42.596;23.044;2022-10-28T09:55:23;94139.34;;;41.28;11.29
15568;BME280;7885;42.596;23.044;2022-10-28T09:57:50;94102.25;;;41.44;11.41
15568;BME280;7885;42.596;23.044;2022-10-28T10:00:17;94135.34;;;42.43;11.24
15568;BME280;7885;42.596;23.044;2022-10-28T10:02:48;94124.59;;;42.59;11.29
15568;BME280;7885;42.596;23.044;2022-10-28T10:05:17;94130.72;;;42.70;10.61
15568;BME280;7885;42.596;23.044;2022-10-28T10:07:47;94099.38;;;42.80;10.48
15568;BME280;7885;42.596;23.044;2022-10-28T10:10:21;94137.63;;;42.67;10.51
15568;BME280;7885;42.596;23.044;2022-10-28T10:12:49;94125.00;;;42.70;10.48
15568;BME280;7885;42.596;23.044;2022-10-28T10:15:22;94119.69;;;41.83;10.83
15568;BME280;7885;42.596;23.044;2022-10-28T10:17:54;94115.88;;;41.81;11.29
15568;BME280;7885;42.596;23.044;2022-10-28T10:20:23;94117.41;;;41.82;11.29
15568;BME280;7885;42.596;23.044;2022-10-28T10:22:50;94088.03;;;41.81;10.80
15568;BME280;7885;42.596;23.044;2022-10-28T10:32:14;94100.06;;;38.45;12.74
15568;BME280;7885;42.596;23.044;2022-10-28T10:34:47;94104.94;;;39.64;12.34
15568;BME280;7885;42.596;23.044;2022-10-28T10:37:18;94093.81;;;39.19;12.42
15568;BME280;7885;42.596;23.044;2022-10-28T10:40:00;94053.66;;;39.10;12.57
15568;BME280;7885;42.596;23.044;2022-10-28T10:42:28;94077.72;;;38.88;12.49
15568;BME280;7885;42.596;23.044;2022-10-28T10:45:00;94097.19;;;39.52;12.40
15568;BME280;7885;42.596;23.044;2022-10-28T10:47:28;94035.94;;;38.57;12.87
15568;BME280;7885;42.596;23.044;2022-10-28T10:50:19;94064.13;;;38.81;12.36
15568;BME280;7885;42.596;23.044;2022-10-28T10:52:47;94084.47;;;40.15;11.85
15568;BME280;7885;42.596;23.044;2022-10-28T10:55:21;94087.50;;;40.45;11.54
15568;BME280;7885;42.596;23.044;2022-10-28T10:57:48;94090.13;;;40.35;11.07
15568;BME280;7885;42.596;23.044;2022-10-28T11:00:16;94071.72;;;40.80;10.71
15568;BME280;7885;42.596;23.044;2022-10-28T11:09:33;94030.28;;;40.51;10.36
15568;BME280;7885;42.596;23.044;2022-10-28T11:12:13;94000.78;;;39.84;10.34
15568;BME280;7885;42.596;23.044;2022-10-28T11:14:52;94061.22;;;39.07;11.25
15568;BME280;7885;42.596;23.044;2022-10-28T11:17:23;94055.50;;;37.81;11.88
15568;BME280;7885;42.596;23.044;2022-10-28T11:19:53;94049.53;;;36.71;12.68
15568;BME280;7885;42.596;23.044;2022-10-28T11:22:29;94046.91;;;35.87;13.66
15568;BME280;7885;42.596;23.044;2022-10-28T11:25:20;94045.22;;;35.48;13.88
15568;BME280;7885;42.596;23.044;2022-10-28T11:27:59;94020.66;;;34.62;13.55
15568;BME280;7885;42.596;23.044;2022-10-28T11:30:40;94052.03;;;34.64;13.99
15568;BME280;7885;42.596;23.044;2022-10-28T11:33:14;94021.16;;;34.08;13.89
15568;BME280;7885;42.596;23.044;2022-10-28T11:35:47;94050.69;;;34.18;14.01
15568;BME280;7885;42.596;23.044;2022-10-28T11:38:29;94047.78;;;34.35;13.94
15568;BME280;7885;42.596;23.044;2022-10-28T11:41:13;94001.75;;;34.40;13.99
15568;BME280;7885;42.596;23.044;2022-10-28T11:43:48;94047.38;;;34.72;13.66
15568;BME280;7885;42.596;23.044;2022-10-28T11:46:22;94041.31;;;34.45;13.95
15568;BME280;7885;42.596;23.044;2022-10-28T11:49:07;94034.91;;;34.39;14.06
15568;BME280;7885;42.596;23.044;2022-10-28T11:51:43;93969.00;;;34.20;13.53
15568;BME280;7885;42.596;23.044;2022-10-28T11:54:33;94029.91;;;34.68;13.48
15568;BME280;7885;42.596;23.044;2022-10-28T11:57:07;93988.69;;;34.31;13.85
15568;BME280;7885;42.596;23.044;2022-10-28T11:59:59;94033.53;;;34.51;14.58
15568;BME280;7885;42.596;23.044;2022-10-28T12:02:41;94018.41;;;33.86;14.88
15568;BME280;7885;42.596;23.044;2022-10-28T12:05:15;94027.91;;;33.94;14.77
15568;BME280;7885;42.596;23.044;2022-10-28T12:11:07;94027.34;;;34.01;15.13
15568;BME280;7885;42.596;23.044;2022-10-28T12:13:43;94029.28;;;33.48;15.59
15568;BME280;7885;42.596;23.044;2022-10-28T12:16:17;94018.50;;;33.64;15.40
15568;BME280;7885;42.596;23.044;2022-10-28T12:18:51;94018.78;;;33.43;15.31
15568;BME280;7885;42.596;23.044;2022-10-28T12:21:26;94020.06;;;33.42;15.68
15568;BME280;7885;42.596;23.044;2022-10-28T12:23:57;94024.94;;;33.36;15.69
15568;BME280;7885;42.596;23.044;2022-10-28T12:26:33;94000.84;;;33.24;15.69
15568;BME280;7885;42.596;23.044;2022-10-28T12:29:03;94014.19;;;33.18;15.83
15568;BME280;7885;42.596;23.044;2022-10-28T12:31:39;94001.31;;;32.50;16.61
15568;BME280;7885;42.596;23.044;2022-10-28T12:34:11;93990.72;;;32.12;16.89
15568;BME280;7885;42.596;23.044;2022-10-28T12:36:41;94005.81;;;32.15;16.55
15568;BME280;7885;42.596;23.044;2022-10-28T12:39:14;94012.97;;;31.57;16.98
15568;BME280;7885;42.596;23.044;2022-10-28T12:41:48;94009.91;;;31.54;17.64
15568;BME280;7885;42.596;23.044;2022-10-28T12:44:20;94013.56;;;31.29;17.40
15568;BME280;7885;42.596;23.044;2022-10-28T12:47:02;94003.31;;;30.95;17.74
15568;BME280;7885;42.596;23.044;2022-10-28T12:49:38;94002.56;;;30.94;17.66
15568;BME280;7885;42.596;23.044;2022-10-28T12:52:19;93994.09;;;30.89;17.90
15568;BME280;7885;42.596;23.044;2022-10-28T12:54:53;93986.88;;;30.31;17.91
15568;BME280;7885;42.596;23.044;2022-10-28T12:57:22;93992.47;;;30.25;18.06
15568;BME280;7885;42.596;23.044;2022-10-28T12:59:55;94001.34;;;29.98;18.79
15568;BME280;7885;42.596;23.044;2022-10-28T13:02:28;94001.34;;;29.57;18.87
15568;BME280;7885;42.596;23.044;2022-10-28T13:04:56;93990.81;;;29.52;19.55
15568;BME280;7885;42.596;23.044;2022-10-28T13:07:42;93999.38;;;29.64;19.72
15568;BME280;7885;42.596;23.044;2022-10-28T13:10:22;94000.16;;;29.09;19.69
15568;BME280;7885;42.596;23.044;2022-10-28T13:13:11;93990.91;;;28.88;19.89
15568;BME280;7885;42.596;23.044;2022-10-28T13:18:53;93968.28;;;28.92;19.56
15568;BME280;7885;42.596;23.044;2022-10-28T13:21:34;94001.78;;;29.16;20.03
15568;BME280;7885;42.596;23.044;2022-10-28T13:24:15;93995.72;;;29.02;19.92
15568;BME280;7885;42.596;23.044;2022-10-28T13:26:46;93969.69;;;28.82;19.82
15568;BME280;7885;42.596;23.044;2022-10-28T13:29:20;93995.34;;;28.66;20.47
15568;BME280;7885;42.596;23.044;2022-10-28T13:31:50;93979.34;;;28.81;20.44
15568;BME280;7885;42.596;23.044;2022-10-28T13:34:19;93993.63;;;28.83;20.60
15568;BME280;7885;42.596;23.044;2022-10-28T13:36:54;93943.03;;;28.42;20.56
15568;BME280;7885;42.596;23.044;2022-10-28T13:39:52;93994.41;;;28.69;20.30
15568;BME280;7885;42.596;23.044;2022-10-28T13:42:46;93984.75;;;28.40;20.59
15568;BME280;7885;42.596;23.044;2022-10-28T13:45:48;93991.81;;;28.50;20.47
15568;BME280;7885;42.596;23.044;2022-10-28T13:48:47;93995.00;;;28.43;20.68
15568;BME280;7885;42.596;23.044;2022-10-28T13:51:39;93986.66;;;28.34;20.97
15568;BME280;7885;42.596;23.044;2022-10-28T13:54:23;93991.31;;;28.08;21.29
15568;BME280;7885;42.596;23.044;2022-10-28T13:56:51;93985.78;;;27.99;21.13
15568;BME280;7885;42.596;23.044;2022-10-28T13:59:25;93964.78;;;27.80;21.43
15568;BME280;7885;42.596;23.044;2022-10-28T14:02:00;93990.28;;;27.82;21.73
15568;BME280;7885;42.596;23.044;2022-10-28T14:04:31;93965.91;;;27.58;21.55